This is the latest recevied weather packets stored in our database for station/object DM4SB-4. If no packets are shown the sender has not sent any weather packets the latest 1 day(s).
| Time | Temp. | Humidity | Pressure | Rain* | Wind** | Luminosity | Snow |
|---|---|---|---|---|---|---|---|
| 1836274408 | 9.44° C | 99% | 1019.3 hPa | 0 mm | 0 m/s | - | - |
| 1836274257 | 9.44° C | 99% | 1019.2 hPa | 0 mm | 0 m/s | - | - |
| 1778013034 | 10° C | 95% | 1005.4 hPa | 0 mm | 0 m/s | - | - |
| 1778012433 | 10° C | 95% | 1005.4 hPa | 0 mm | 0 m/s | - | - |
| 1778011833 | 10.56° C | 94% | 1005.1 hPa | 0 mm | 0 m/s | - | - |
| 1778011233 | 10.56° C | 94% | 1005 hPa | 0 mm | 0 m/s | - | - |
| 1778010633 | 11.11° C | 94% | 1004.9 hPa | 0 mm | 0 m/s | - | - |
| 1778010034 | 11.11° C | 93% | 1005 hPa | 0 mm | 0 m/s | - | - |
| 1778009434 | 11.11° C | 93% | 1004.9 hPa | 0 mm | 0 m/s | - | - |
| 1778008834 | 11.67° C | 92% | 1004.8 hPa | 0 mm | 0 m/s | - | - |
| 1778008233 | 11.67° C | 91% | 1004.8 hPa | 0 mm | 0 m/s | - | - |
| 1778007634 | 12.22° C | 90% | 1004.7 hPa | 0 mm | 0 m/s | - | - |
| 1778007033 | 12.22° C | 89% | 1004.7 hPa | 0 mm | 0 m/s | - | - |
| 1778006433 | 12.78° C | 88% | 1004.6 hPa | 0 mm | 0 m/s | - | - |
| 1778005833 | 12.78° C | 87% | 1004.5 hPa | 0 mm | 0 m/s | - | - |
| 1778004037 | 12.78° C | 89% | 1004.4 hPa | 0 mm | 0 m/s | - | - |
| 1778003434 | 12.78° C | 88% | 1004.1 hPa | 0 mm | 0 m/s | - | - |
| 1778002833 | 13.33° C | 88% | 1004.1 hPa | 0 mm | 0 m/s | - | - |
| 1778002233 | 13.89° C | 88% | 1004.4 hPa | 0 mm | 0 m/s | - | - |
| 1778001633 | 13.89° C | 86% | 1004.3 hPa | 0 mm | 0.45 m/s, 109° | - | - |
| 1778001033 | 14.44° C | 86% | 1004.2 hPa | 0 mm | 0 m/s | - | - |
| 1778000433 | 14.44° C | 84% | 1004.3 hPa | 0 mm | 0 m/s | - | - |
| 1777999834 | 14.44° C | 86% | 1004.1 hPa | 0 mm | 0 m/s | - | - |
| 1777999234 | 13.89° C | 89% | 1004.4 hPa | 0 mm | 0 m/s | - | - |
| 1777998633 | 13.89° C | 86% | 1004.3 hPa | 0 mm | 0 m/s | - | - |
* Rain latest hour (hover to see other rain measurements)
** Current wind speed in m/s (hover to see current wind gust speed)